Time;durP1;ratioP1;P1;durP2;ratioP2;P2;SDS_P1;SDS_P2;PMS_P1;PMS_P2;Temp;Humidity;BMP_temperature;BMP_pressure;BME280_temperature;BME280_humidity;BME280_pressure;Samples;Min_cycle;Max_cycle;Signal;HPM_P1;HPM_P2
2021/05/09 00:02:24;;;;;;;5.30;3.83;;;17.20;38.50;;;;;;4998672;28;20458;-87
2021/05/09 00:04:51;;;;;;;7.73;4.10;;;17.00;38.50;;;;;;4998266;28;20450;-87
2021/05/09 00:07:17;;;;;;;9.57;4.70;;;16.90;37.90;;;;;;4997617;28;20620;-87
2021/05/09 00:09:44;;;;;;;4.40;3.50;;;16.80;38.30;;;;;;4998167;28;20944;-87
2021/05/09 00:12:11;;;;;;;6.20;3.90;;;16.50;39.40;;;;;;5002230;28;20849;-88
2021/05/09 00:14:41;;;;;;;5.03;4.17;;;16.50;39.80;;;;;;5000696;28;20531;-87
2021/05/09 00:17:09;;;;;;;7.60;4.50;;;16.90;39.50;;;;;;5000367;28;20506;-87
2021/05/09 00:19:35;;;;;;;12.13;4.00;;;17.10;38.30;;;;;;5000659;28;20557;-88
2021/05/09 00:22:02;;;;;;;4.83;3.70;;;16.80;38.80;;;;;;5001048;28;20441;-88
2021/05/09 00:24:32;;;;;;;6.23;3.60;;;16.60;39.10;;;;;;5000684;28;20485;-86
2021/05/09 00:26:59;;;;;;;7.57;5.07;;;16.80;39.30;;;;;;4998819;28;20478;-87
2021/05/09 00:29:25;;;;;;;5.40;4.40;;;16.50;38.40;;;;;;4997767;28;20483;-88
2021/05/09 00:31:52;;;;;;;5.13;3.87;;;16.40;38.90;;;;;;4997980;28;20456;-87
2021/05/09 00:34:19;;;;;;;4.93;3.57;;;16.50;39.70;;;;;;4997284;28;20440;-88
2021/05/09 00:36:45;;;;;;;5.40;3.60;;;16.90;39.30;;;;;;4997847;28;20543;-87
2021/05/09 00:39:12;;;;;;;8.60;3.70;;;17.10;38.80;;;;;;4997648;28;20438;-87
2021/05/09 00:41:38;;;;;;;6.17;3.93;;;17.40;38.30;;;;;;4996969;28;20570;-88
2021/05/09 00:44:05;;;;;;;4.20;3.50;;;17.40;37.90;;;;;;4998022;28;20515;-87
2021/05/09 00:46:31;;;;;;;5.00;3.90;;;17.30;38.20;;;;;;4997673;28;20504;-87
2021/05/09 00:49:01;;;;;;;4.40;3.63;;;17.20;37.90;;;;;;4998233;28;20451;-87
2021/05/09 00:51:28;;;;;;;7.00;4.10;;;17.20;37.50;;;;;;4997215;28;20444;-87
2021/05/09 00:53:56;;;;;;;5.07;3.90;;;17.10;38.30;;;;;;4997247;28;20447;-87
2021/05/09 00:56:25;;;;;;;8.10;4.27;;;16.80;38.70;;;;;;4997110;28;20549;-87
2021/05/09 00:58:53;;;;;;;6.43;4.00;;;16.80;39.40;;;;;;4997073;28;20451;-87
2021/05/09 01:01:20;;;;;;;6.77;3.73;;;17.00;39.00;;;;;;4998147;28;20480;-87
2021/05/09 01:03:47;;;;;;;8.30;3.80;;;17.30;38.60;;;;;;4998071;28;20459;-88
2021/05/09 01:06:14;;;;;;;4.47;3.57;;;17.30;38.30;;;;;;4996724;28;20466;-87
2021/05/09 01:08:42;;;;;;;7.87;4.70;;;17.30;38.30;;;;;;4997069;28;20489;-87
2021/05/09 01:11:08;;;;;;;5.77;3.50;;;17.10;37.00;;;;;;4996849;28;20450;-87
2021/05/09 01:13:35;;;;;;;6.77;4.47;;;16.80;38.90;;;;;;4997269;28;20515;-88
2021/05/09 01:16:01;;;;;;;4.53;3.97;;;16.60;39.10;;;;;;4997331;28;20478;-87
2021/05/09 01:18:28;;;;;;;5.10;3.23;;;16.80;39.00;;;;;;4996864;28;20444;-87
2021/05/09 01:20:56;;;;;;;8.17;4.40;;;16.80;39.30;;;;;;4996549;28;20532;-87
2021/05/09 01:23:23;;;;;;;10.37;5.20;;;16.90;38.20;;;;;;5014391;28;20433;-85
2021/05/09 01:25:49;;;;;;;6.73;4.70;;;16.20;38.80;;;;;;5000652;28;20907;-88
2021/05/09 01:28:15;;;;;;;5.00;4.10;;;15.90;39.80;;;;;;4996876;28;20953;-88
2021/05/09 01:30:42;;;;;;;5.17;3.97;;;16.00;40.30;;;;;;4996265;28;20449;-87
2021/05/09 01:33:08;;;;;;;4.30;3.97;;;16.10;40.50;;;;;;4996073;28;20940;-87
2021/05/09 01:35:35;;;;;;;10.60;4.70;;;16.00;40.40;;;;;;4996452;28;20627;-87
2021/05/09 01:38:04;;;;;;;6.60;5.00;;;15.80;40.20;;;;;;4996511;28;20483;-87
2021/05/09 01:40:30;;;;;;;3.40;3.23;;;15.90;40.80;;;;;;4996144;28;20566;-87
2021/05/09 01:42:57;;;;;;;6.60;3.63;;;15.90;40.80;;;;;;4996301;28;20439;-87
2021/05/09 01:45:23;;;;;;;4.43;3.67;;;16.20;41.10;;;;;;4995901;28;20559;-87
2021/05/09 01:47:50;;;;;;;6.03;3.83;;;16.50;40.20;;;;;;4995496;28;20433;-88
2021/05/09 01:50:18;;;;;;;5.87;4.30;;;16.60;39.50;;;;;;4996449;28;20535;-87
2021/05/09 01:52:45;;;;;;;7.17;4.13;;;16.80;39.10;;;;;;4995960;28;20490;-88
2021/05/09 01:55:14;;;;;;;5.30;4.20;;;16.30;39.60;;;;;;4995896;28;20453;-87
2021/05/09 01:57:41;;;;;;;6.20;4.70;;;16.20;39.90;;;;;;4996188;28;20432;-87
2021/05/09 02:00:10;;;;;;;8.03;4.57;;;16.20;39.80;;;;;;4995696;28;20529;-87
2021/05/09 02:02:36;;;;;;;5.20;4.30;;;16.10;39.60;;;;;;4995613;28;20530;-87
2021/05/09 02:05:03;;;;;;;6.80;4.30;;;15.80;40.70;;;;;;4996263;28;20527;-87
2021/05/09 02:07:30;;;;;;;6.70;4.57;;;15.70;40.60;;;;;;4996400;28;20467;-87
2021/05/09 02:09:56;;;;;;;9.63;3.70;;;15.50;41.10;;;;;;4996294;28;20455;-87
2021/05/09 02:12:23;;;;;;;8.73;4.70;;;15.50;41.30;;;;;;4996911;28;20521;-87
2021/05/09 02:14:50;;;;;;;8.97;5.00;;;15.60;40.60;;;;;;4996533;28;20459;-87
2021/05/09 02:17:18;;;;;;;5.60;4.60;;;15.50;40.40;;;;;;4998105;28;20470;-87
2021/05/09 02:19:45;;;;;;;8.93;5.10;;;15.70;40.60;;;;;;4996530;28;20447;-87
2021/05/09 02:22:11;;;;;;;7.40;4.50;;;15.80;40.70;;;;;;4996624;28;20478;-87
2021/05/09 02:24:37;;;;;;;5.50;4.53;;;15.80;40.70;;;;;;4996526;28;20458;-87
2021/05/09 02:27:04;;;;;;;13.93;4.60;;;15.60;40.50;;;;;;4995861;28;20526;-87
2021/05/09 02:29:31;;;;;;;5.93;4.27;;;15.60;40.60;;;;;;4995881;28;20538;-87
2021/05/09 02:31:57;;;;;;;5.93;4.00;;;15.40;40.80;;;;;;4995912;28;20490;-87
2021/05/09 02:34:24;;;;;;;6.10;3.93;;;15.90;41.30;;;;;;4995368;28;20458;-87
2021/05/09 02:36:50;;;;;;;6.47;4.67;;;16.20;41.10;;;;;;4994977;28;20474;-87
2021/05/09 02:39:17;;;;;;;5.13;4.13;;;16.30;40.00;;;;;;4995421;28;20490;-87
2021/05/09 02:41:43;;;;;;;6.30;4.03;;;16.00;40.10;;;;;;4995187;28;20541;-87
2021/05/09 02:44:10;;;;;;;7.20;4.80;;;16.00;40.90;;;;;;4995497;28;20509;-87
2021/05/09 02:46:38;;;;;;;5.90;4.03;;;15.90;39.90;;;;;;4995361;28;20926;-87
2021/05/09 02:49:04;;;;;;;8.83;5.60;;;15.90;40.80;;;;;;4995657;28;20466;-87
2021/05/09 02:51:31;;;;;;;7.67;4.70;;;15.80;41.40;;;;;;4995649;28;20451;-87
2021/05/09 02:53:57;;;;;;;5.00;3.80;;;15.90;40.80;;;;;;5012347;28;20447;-87
2021/05/09 02:56:24;;;;;;;6.00;4.40;;;15.90;41.50;;;;;;5000807;28;21008;-87
2021/05/09 02:58:50;;;;;;;4.77;3.33;;;16.10;40.50;;;;;;4996015;28;20478;-87
2021/05/09 03:01:17;;;;;;;5.50;4.70;;;16.20;40.60;;;;;;4995677;28;20471;-87
2021/05/09 03:03:44;;;;;;;7.30;4.47;;;16.30;39.50;;;;;;4995750;28;20447;-87
2021/05/09 03:06:11;;;;;;;5.67;4.07;;;16.30;39.70;;;;;;4995250;28;20469;-87
2021/05/09 03:08:37;;;;;;;5.13;4.67;;;16.40;40.40;;;;;;4996182;28;20455;-87
2021/05/09 03:11:03;;;;;;;6.67;4.90;;;15.80;40.70;;;;;;4997677;28;20820;-87
2021/05/09 03:13:31;;;;;;;9.30;4.97;;;15.10;41.20;;;;;;4995701;28;20533;-87
2021/05/09 03:15:57;;;;;;;10.70;5.67;;;14.60;42.60;;;;;;4995599;28;20637;-87
2021/05/09 03:18:24;;;;;;;5.87;4.80;;;14.50;43.00;;;;;;4995897;28;20447;-87
2021/05/09 03:20:52;;;;;;;5.87;4.70;;;14.40;43.40;;;;;;4997954;28;20502;-87
2021/05/09 03:23:18;;;;;;;6.73;4.17;;;14.60;43.10;;;;;;4999780;28;21058;-87
2021/05/09 03:25:45;;;;;;;7.40;4.60;;;14.90;43.00;;;;;;5008140;28;20570;-87
2021/05/09 03:28:11;;;;;;;7.33;5.13;;;15.10;42.20;;;;;;5000256;28;20525;-86
2021/05/09 03:30:38;;;;;;;5.77;4.10;;;15.00;42.00;;;;;;4998205;28;20482;-87
2021/05/09 03:33:05;;;;;;;6.77;4.20;;;15.30;43.00;;;;;;4997427;28;20435;-87
2021/05/09 03:35:31;;;;;;;6.50;4.53;;;15.60;41.20;;;;;;4997106;28;20551;-87
2021/05/09 03:37:59;;;;;;;7.50;4.77;;;15.70;42.00;;;;;;4998398;28;20538;-87
2021/05/09 03:40:26;;;;;;;6.03;3.90;;;15.90;41.80;;;;;;4995725;28;20487;-86
2021/05/09 03:42:52;;;;;;;7.87;5.90;;;16.00;40.90;;;;;;4996111;28;20518;-87
2021/05/09 03:45:19;;;;;;;7.93;5.40;;;15.90;40.80;;;;;;4995781;28;20542;-86
2021/05/09 03:47:46;;;;;;;5.57;4.03;;;15.90;40.80;;;;;;5007952;28;20451;-86
2021/05/09 03:50:12;;;;;;;6.50;4.50;;;15.90;41.30;;;;;;5005720;28;20813;-87
2021/05/09 03:52:39;;;;;;;6.00;4.50;;;16.00;40.90;;;;;;4999321;28;20558;-86
2021/05/09 03:55:07;;;;;;;6.97;4.80;;;15.90;40.80;;;;;;4997168;28;20479;-86
2021/05/09 03:57:34;;;;;;;5.40;4.47;;;15.90;40.80;;;;;;4996565;28;20432;-86
2021/05/09 04:00:00;;;;;;;9.00;5.10;;;15.50;41.00;;;;;;5010126;28;20471;-85
2021/05/09 04:02:26;;;;;;;6.30;4.73;;;15.50;41.40;;;;;;4996506;28;20945;-86
2021/05/09 04:04:53;;;;;;;5.27;4.47;;;15.60;41.10;;;;;;4995977;28;21008;-87
2021/05/09 04:07:19;;;;;;;9.30;4.90;;;15.30;41.30;;;;;;4995867;28;20505;-87
2021/05/09 04:09:46;;;;;;;9.07;4.70;;;15.30;41.90;;;;;;4998207;28;20929;-86
2021/05/09 04:12:13;;;;;;;5.60;4.50;;;15.20;40.90;;;;;;4999097;28;20447;-86
2021/05/09 04:14:39;;;;;;;5.70;4.23;;;15.80;41.50;;;;;;5002894;28;20458;-87
2021/05/09 04:17:06;;;;;;;7.67;4.57;;;15.90;41.10;;;;;;5001336;28;20498;-86
2021/05/09 04:19:32;;;;;;;6.60;4.63;;;15.60;41.50;;;;;;5000062;28;20539;-87
2021/05/09 04:21:58;;;;;;;7.10;4.10;;;15.80;41.20;;;;;;5000968;28;20577;-86
2021/05/09 04:24:25;;;;;;;9.00;4.87;;;15.90;41.30;;;;;;5015613;28;20451;-84
2021/05/09 04:26:51;;;;;;;8.00;4.60;;;15.90;41.30;;;;;;5011424;28;20523;-86
2021/05/09 04:29:18;;;;;;;5.00;4.33;;;16.00;41.00;;;;;;5015667;28;20455;-86
2021/05/09 04:31:45;;;;;;;5.10;4.33;;;16.10;41.10;;;;;;5001042;28;20478;-86
2021/05/09 04:34:11;;;;;;;7.00;5.23;;;16.10;40.50;;;;;;4998696;28;20533;-86
2021/05/09 04:36:38;;;;;;;9.67;5.13;;;15.70;40.60;;;;;;4998371;28;20498;-88
2021/05/09 04:39:05;;;;;;;14.43;5.63;;;15.60;40.90;;;;;;4998585;28;20451;-88
2021/05/09 04:41:31;;;;;;;7.90;4.60;;;15.70;40.60;;;;;;4998860;28;20490;-88
2021/05/09 04:43:59;;;;;;;4.60;4.00;;;15.40;40.40;;;;;;5000587;28;20450;-87
2021/05/09 04:46:26;;;;;;;11.23;4.83;;;14.80;41.90;;;;;;5001156;28;20471;-86
2021/05/09 04:48:53;;;;;;;6.60;4.83;;;15.00;42.40;;;;;;4999379;28;20487;-87
2021/05/09 04:51:19;;;;;;;7.90;4.90;;;14.90;42.30;;;;;;5001167;28;20510;-87
2021/05/09 04:53:46;;;;;;;7.50;4.60;;;15.10;42.10;;;;;;4999759;28;20435;-86
2021/05/09 04:56:12;;;;;;;11.60;4.73;;;15.10;42.10;;;;;;5000929;28;20514;-86
2021/05/09 04:58:40;;;;;;;6.77;4.97;;;15.30;42.50;;;;;;4998481;28;20439;-86
2021/05/09 05:01:08;;;;;;;5.10;4.73;;;15.40;42.10;;;;;;4997635;28;20574;-87
2021/05/09 05:03:36;;;;;;;6.80;4.47;;;15.80;42.50;;;;;;4997732;28;20532;-86
2021/05/09 05:06:04;;;;;;;8.63;5.37;;;16.00;41.60;;;;;;4999530;28;20478;-86
2021/05/09 05:08:32;;;;;;;10.10;5.50;;;15.90;40.80;;;;;;5014817;28;20451;-86
2021/05/09 05:10:59;;;;;;;7.03;4.73;;;15.90;40.80;;;;;;4999737;28;20525;-86
2021/05/09 05:13:27;;;;;;;9.17;4.87;;;15.80;40.70;;;;;;4997920;28;20543;-86
2021/05/09 05:15:55;;;;;;;7.30;5.13;;;15.60;41.80;;;;;;4996924;28;20533;-86
2021/05/09 05:18:22;;;;;;;6.43;4.67;;;15.40;42.50;;;;;;4996589;28;20511;-86
2021/05/09 05:20:50;;;;;;;5.93;3.60;;;15.50;42.30;;;;;;4996065;28;21066;-86
2021/05/09 05:23:17;;;;;;;5.70;4.03;;;15.70;42.80;;;;;;4996896;28;20494;-86
2021/05/09 05:25:44;;;;;;;6.37;3.87;;;16.50;41.40;;;;;;4996562;28;20491;-86
2021/05/09 05:28:11;;;;;;;6.33;3.73;;;17.10;40.20;;;;;;4996633;28;20455;-87
2021/05/09 05:30:38;;;;;;;6.37;4.33;;;17.30;40.80;;;;;;4996492;28;20457;-86
2021/05/09 05:33:06;;;;;;;6.40;3.73;;;18.00;39.90;;;;;;4996485;28;20551;-87
2021/05/09 05:35:33;;;;;;;4.50;3.50;;;19.20;38.40;;;;;;4996326;28;20505;-86
2021/05/09 05:38:00;;;;;;;4.87;3.80;;;20.10;37.30;;;;;;4996536;28;20542;-87
2021/05/09 05:40:27;;;;;;;6.97;3.23;;;21.30;34.30;;;;;;4996408;28;20487;-88
2021/05/09 05:42:54;;;;;;;5.20;3.03;;;21.90;35.30;;;;;;4995979;28;20454;-88
2021/05/09 05:45:20;;;;;;;3.80;3.47;;;22.50;33.90;;;;;;4996377;28;20830;-87
2021/05/09 05:47:49;;;;;;;4.27;3.23;;;23.00;32.50;;;;;;4996239;28;20805;-87
2021/05/09 05:50:15;;;;;;;7.63;3.30;;;23.90;32.40;;;;;;4998414;28;20443;-88
2021/05/09 05:52:42;;;;;;;4.30;3.17;;;24.50;30.60;;;;;;4995770;28;20477;-88
2021/05/09 05:55:11;;;;;;;7.03;3.57;;;24.50;29.80;;;;;;5015435;28;20505;-86
2021/05/09 05:57:37;;;;;;;7.20;3.40;;;25.20;29.90;;;;;;4995145;28;20965;-87
2021/05/09 06:00:05;;;;;;;26.63;3.40;;;26.10;29.00;;;;;;4996029;28;20470;-87
2021/05/09 06:02:31;;;;;;;4.53;3.30;;;26.90;28.50;;;;;;4997505;28;20478;-87
2021/05/09 06:04:58;;;;;;;3.83;3.13;;;27.60;27.00;;;;;;4997502;28;20435;-87
2021/05/09 06:07:25;;;;;;;5.13;3.50;;;27.10;27.10;;;;;;4997153;28;20510;-87
2021/05/09 06:09:52;;;;;;;3.50;2.97;;;27.60;27.10;;;;;;4997314;28;20450;-87
2021/05/09 06:12:19;;;;;;;5.60;3.23;;;27.50;26.90;;;;;;4996139;28;20475;-87
2021/05/09 06:14:46;;;;;;;6.67;3.00;;;27.90;26.50;;;;;;4995949;28;20554;-88
2021/05/09 06:17:12;;;;;;;5.40;3.20;;;28.50;26.10;;;;;;4996702;28;20550;-87
2021/05/09 06:19:38;;;;;;;8.53;3.30;;;28.60;25.70;;;;;;4998179;28;20457;-88
2021/05/09 06:22:05;;;;;;;7.87;2.80;;;28.90;25.70;;;;;;4998735;28;20474;-88
2021/05/09 06:24:32;;;;;;;4.37;2.63;;;29.60;25.10;;;;;;4999722;28;20483;-88
2021/05/09 06:26:58;;;;;;;3.77;3.07;;;29.80;24.70;;;;;;4999412;28;20471;-88
2021/05/09 06:29:25;;;;;;;4.47;2.90;;;30.10;24.30;;;;;;4998851;28;20451;-88
2021/05/09 06:31:52;;;;;;;2.80;2.60;;;30.00;24.20;;;;;;4998782;28;20471;-87
2021/05/09 06:34:18;;;;;;;4.50;2.57;;;29.70;24.60;;;;;;4999590;28;20845;-87
2021/05/09 06:36:45;;;;;;;4.80;2.73;;;30.00;24.70;;;;;;4997860;28;20483;-87
2021/05/09 06:39:12;;;;;;;6.13;2.73;;;30.50;23.90;;;;;;4996832;28;20513;-87
2021/05/09 06:41:38;;;;;;;7.37;3.03;;;30.70;23.90;;;;;;4996870;28;20898;-87
2021/05/09 06:44:09;;;;;;;7.80;3.27;;;30.80;23.60;;;;;;4998151;28;20813;-87
2021/05/09 06:46:36;;;;;;;5.67;2.90;;;31.40;23.00;;;;;;4996059;28;20516;-87
2021/05/09 06:49:02;;;;;;;7.33;3.53;;;31.40;22.40;;;;;;4995905;28;20460;-87
2021/05/09 06:51:29;;;;;;;3.97;2.30;;;30.90;22.90;;;;;;4998291;28;20434;-86
2021/05/09 06:53:56;;;;;;;4.37;3.10;;;31.10;22.90;;;;;;4999501;28;20455;-87
2021/05/09 06:56:23;;;;;;;4.93;2.50;;;31.20;23.10;;;;;;4996223;28;20474;-87
2021/05/09 06:58:49;;;;;;;3.67;3.30;;;32.00;21.90;;;;;;4995354;28;20451;-87
2021/05/09 07:01:16;;;;;;;8.53;2.40;;;32.10;21.90;;;;;;4996545;28;21079;-86
2021/05/09 07:03:43;;;;;;;8.17;2.60;;;31.80;21.90;;;;;;4995613;28;20913;-86
2021/05/09 07:06:10;;;;;;;4.93;2.47;;;32.00;21.60;;;;;;4995804;28;20608;-86
2021/05/09 07:08:36;;;;;;;10.73;2.77;;;31.90;21.80;;;;;;4995963;28;20466;-87
2021/05/09 07:11:02;;;;;;;5.53;2.87;;;32.00;21.80;;;;;;4995376;28;20478;-87
2021/05/09 07:13:29;;;;;;;3.03;2.20;;;32.40;21.90;;;;;;4995465;28;20568;-87
2021/05/09 07:15:58;;;;;;;3.90;2.50;;;33.00;20.90;;;;;;4996116;28;20562;-87
2021/05/09 07:18:26;;;;;;;4.57;2.70;;;33.50;20.30;;;;;;4997001;28;20455;-87
2021/05/09 07:20:56;;;;;;;7.00;2.93;;;33.80;19.10;;;;;;4995235;28;20487;-87
2021/05/09 07:23:22;;;;;;;3.20;2.50;;;34.60;18.80;;;;;;4995609;28;20550;-88
2021/05/09 07:25:50;;;;;;;3.90;2.20;;;33.70;18.70;;;;;;4997382;28;20525;-87
2021/05/09 07:28:18;;;;;;;3.67;1.90;;;33.30;18.80;;;;;;4998511;28;20458;-87
2021/05/09 07:30:45;;;;;;;3.60;2.00;;;33.60;18.20;;;;;;4998210;28;20451;-86
2021/05/09 07:33:13;;;;;;;3.70;2.30;;;34.00;18.50;;;;;;4998510;28;20454;-87
2021/05/09 07:35:40;;;;;;;8.23;2.60;;;33.70;19.20;;;;;;4997305;28;20466;-87
2021/05/09 07:38:09;;;;;;;4.70;3.83;;;33.90;18.90;;;;;;4997660;28;20478;-86
2021/05/09 07:40:36;;;;;;;5.63;2.37;;;34.20;18.80;;;;;;4997370;28;20922;-87
2021/05/09 07:43:03;;;;;;;5.30;3.07;;;34.20;18.40;;;;;;4997780;28;20450;-87
2021/05/09 07:45:30;;;;;;;7.57;2.67;;;34.20;18.10;;;;;;4999952;28;20470;-87
2021/05/09 07:47:57;;;;;;;3.90;2.60;;;34.70;18.10;;;;;;4999465;28;20995;-86
2021/05/09 07:50:25;;;;;;;5.70;2.50;;;34.30;18.60;;;;;;4999397;28;20447;-87
2021/05/09 07:52:52;;;;;;;3.63;2.60;;;34.40;18.60;;;;;;4999828;28;20501;-87
2021/05/09 07:55:20;;;;;;;3.67;2.47;;;34.40;17.90;;;;;;5005746;28;20439;-86
2021/05/09 07:57:46;;;;;;;4.13;2.30;;;34.00;18.30;;;;;;5013535;28;20443;-87
2021/05/09 08:00:15;;;;;;;6.33;2.70;;;34.40;18.20;;;;;;4998534;28;20451;-87
2021/05/09 08:02:42;;;;;;;3.20;2.50;;;34.50;18.10;;;;;;4998711;28;20549;-87
2021/05/09 08:05:10;;;;;;;2.67;2.40;;;34.50;18.20;;;;;;4998966;28;20441;-86
2021/05/09 08:07:47;;;;;;;5.10;2.30;;;35.20;17.70;;;;;;4999098;28;20923;-86
2021/05/09 08:10:13;;;;;;;3.03;2.30;;;35.10;17.80;;;;;;4999061;28;20434;-86
2021/05/09 08:12:40;;;;;;;2.97;2.00;;;34.60;18.40;;;;;;4998353;28;20534;-86
2021/05/09 08:15:08;;;;;;;3.03;2.20;;;34.20;18.40;;;;;;4998099;28;20458;-86
2021/05/09 08:17:34;;;;;;;5.30;2.60;;;34.60;17.80;;;;;;4997924;28;20435;-87
2021/05/09 08:20:01;;;;;;;3.40;2.23;;;34.40;18.10;;;;;;4998242;28;20450;-86
2021/05/09 08:22:27;;;;;;;2.63;2.10;;;34.50;18.00;;;;;;4997883;28;20505;-86
2021/05/09 08:24:54;;;;;;;2.93;2.17;;;34.60;18.40;;;;;;4997548;28;20458;-86
2021/05/09 08:27:20;;;;;;;7.60;2.00;;;34.50;17.80;;;;;;4997985;28;20596;-87
2021/05/09 08:29:47;;;;;;;6.80;2.10;;;34.30;18.30;;;;;;4997645;28;20882;-87
2021/05/09 08:32:14;;;;;;;3.20;1.90;;;33.90;18.20;;;;;;4996961;28;20479;-87
2021/05/09 08:34:40;;;;;;;2.57;2.07;;;33.90;18.50;;;;;;4997304;28;20568;-88
2021/05/09 08:37:07;;;;;;;2.70;2.00;;;33.90;18.80;;;;;;4996681;28;20455;-87
2021/05/09 08:39:33;;;;;;;2.80;2.20;;;33.60;19.10;;;;;;4996956;28;20478;-87
2021/05/09 08:41:59;;;;;;;6.33;2.20;;;33.60;19.20;;;;;;4997391;28;20501;-87
2021/05/09 08:44:26;;;;;;;4.80;2.13;;;33.30;19.60;;;;;;4996710;28;20535;-87
2021/05/09 08:46:54;;;;;;;2.37;2.00;;;32.90;19.60;;;;;;4997254;28;20518;-87
2021/05/09 08:49:21;;;;;;;2.00;1.87;;;32.50;20.60;;;;;;4997054;28;20967;-87
2021/05/09 08:51:49;;;;;;;5.93;2.40;;;32.10;21.20;;;;;;4997247;28;20451;-87
2021/05/09 08:54:16;;;;;;;4.77;2.10;;;32.30;21.10;;;;;;4997189;28;20549;-87
2021/05/09 08:56:42;;;;;;;4.13;2.13;;;32.40;21.00;;;;;;4996133;28;20506;-87
2021/05/09 08:59:09;;;;;;;4.47;3.10;;;32.40;20.60;;;;;;4996776;28;20502;-87
2021/05/09 09:01:40;;;;;;;5.00;2.73;;;31.90;20.90;;;;;;4996327;28;20984;-87
2021/05/09 09:04:07;;;;;;;2.50;2.23;;;31.60;20.90;;;;;;4996210;28;20426;-87
2021/05/09 09:06:41;;;;;;;5.20;2.03;;;31.60;21.60;;;;;;4996581;28;20553;-87
2021/05/09 09:09:17;;;;;;;8.33;2.20;;;32.00;21.10;;;;;;4996702;28;20586;-87
2021/05/09 09:11:53;;;;;;;6.80;2.40;;;31.80;21.50;;;;;;4996521;28;20435;-86
2021/05/09 09:14:25;;;;;;;7.67;2.10;;;31.70;21.90;;;;;;4996926;28;20508;-86
2021/05/09 09:17:10;;;;;;;4.80;2.43;;;31.30;22.10;;;;;;4997033;28;20466;-87
2021/05/09 09:20:01;;;;;;;2.87;2.50;;;31.60;22.00;;;;;;4996916;28;20508;-86
2021/05/09 09:22:28;;;;;;;2.30;2.17;;;31.30;21.80;;;;;;4997606;28;20521;-86
2021/05/09 09:25:06;;;;;;;3.93;2.13;;;31.60;22.00;;;;;;4997016;28;20462;-86
2021/05/09 09:27:32;;;;;;;4.60;2.40;;;31.40;21.80;;;;;;4996394;28;20885;-86
2021/05/09 09:30:00;;;;;;;3.83;2.00;;;31.60;21.70;;;;;;4996193;28;21034;-89
2021/05/09 09:32:26;;;;;;;4.37;2.03;;;31.30;22.00;;;;;;4996466;28;20530;-86
2021/05/09 09:34:53;;;;;;;5.70;3.23;;;31.20;22.60;;;;;;5016081;28;20447;-85
2021/05/09 09:37:20;;;;;;;2.70;2.30;;;31.10;22.40;;;;;;4999723;28;20471;-86
2021/05/09 09:39:48;;;;;;;4.30;2.37;;;31.10;22.40;;;;;;4996046;28;20473;-86
2021/05/09 09:42:15;;;;;;;10.83;1.80;;;31.40;21.80;;;;;;4995216;28;20502;-86
2021/05/09 09:44:42;;;;;;;9.13;2.17;;;31.50;18.90;;;;;;4996433;28;20522;-86
2021/05/09 09:47:08;;;;;;;1.80;1.67;;;31.60;17.30;;;;;;4996456;28;20502;-86
2021/05/09 09:49:37;;;;;;;3.97;2.37;;;31.80;17.20;;;;;;4996040;28;20527;-86
2021/05/09 09:52:05;;;;;;;1.97;1.50;;;31.50;17.40;;;;;;4996441;28;20823;-86
2021/05/09 09:54:41;;;;;;;5.83;1.67;;;31.40;16.20;;;;;;5001512;28;20525;-86
2021/05/09 09:57:10;;;;;;;4.10;1.93;;;32.00;16.60;;;;;;4998690;28;20502;-86
2021/05/09 09:59:37;;;;;;;2.53;2.17;;;31.40;15.80;;;;;;4996347;28;20952;-86
2021/05/09 10:02:05;;;;;;;2.23;1.70;;;31.60;16.40;;;;;;4995496;28;20482;-86
2021/05/09 10:04:32;;;;;;;2.80;2.03;;;31.80;18.40;;;;;;4996243;28;20956;-85
2021/05/09 10:07:04;;;;;;;2.13;1.60;;;32.10;16.30;;;;;;4995637;28;20602;-85
2021/05/09 10:09:31;;;;;;;4.43;1.80;;;32.30;15.60;;;;;;4995731;28;20475;-85
2021/05/09 10:11:58;;;;;;;2.20;1.90;;;32.00;16.70;;;;;;4996252;28;20470;-85
2021/05/09 10:14:24;;;;;;;1.87;1.50;;;32.00;15.80;;;;;;4995399;28;20450;-85
2021/05/09 10:16:51;;;;;;;2.87;1.63;;;31.80;16.10;;;;;;4995365;28;20455;-85
2021/05/09 10:19:23;;;;;;;1.97;1.60;;;31.70;15.00;;;;;;4995705;28;20461;-85
2021/05/09 10:21:49;;;;;;;3.80;2.00;;;31.60;16.80;;;;;;4995054;28;20817;-85
2021/05/09 10:24:17;;;;;;;3.27;1.90;;;31.70;16.30;;;;;;4996384;28;20435;-85
2021/05/09 10:27:09;;;;;;;3.60;2.00;;;32.00;16.20;;;;;;4997061;28;20483;-85
2021/05/09 10:29:49;;;;;;;5.43;1.90;;;31.90;17.00;;;;;;4995685;28;20889;-86
2021/05/09 10:32:50;;;;;;;4.00;2.30;;;32.00;17.00;;;;;;4995526;28;20506;-86
2021/05/09 10:35:35;;;;;;;4.03;2.10;;;31.90;16.00;;;;;;4995007;28;20426;-86
2021/05/09 10:38:04;;;;;;;2.50;1.80;;;31.60;16.00;;;;;;4995183;28;20465;-86
2021/05/09 10:40:33;;;;;;;2.27;1.80;;;31.20;15.70;;;;;;4995124;28;20498;-86
2021/05/09 10:43:36;;;;;;;3.00;1.90;;;31.60;15.80;;;;;;4995314;28;20447;-85
2021/05/09 10:46:07;;;;;;;1.77;1.70;;;31.80;15.60;;;;;;5014430;28;20481;-85
2021/05/09 10:48:34;;;;;;;1.53;1.53;;;31.80;17.40;;;;;;5014756;28;20427;-86
2021/05/09 10:51:28;;;;;;;3.70;1.90;;;31.80;16.90;;;;;;5016910;28;20481;-86
2021/05/09 10:54:22;;;;;;;2.50;1.90;;;31.80;16.10;;;;;;5016767;28;20463;-85
2021/05/09 10:56:50;;;;;;;2.13;1.63;;;31.80;16.40;;;;;;5016833;28;20467;-86
2021/05/09 10:59:17;;;;;;;2.60;2.10;;;31.80;16.50;;;;;;5005151;28;20442;-85
2021/05/09 11:01:44;;;;;;;4.43;1.93;;;32.10;15.80;;;;;;5011031;28;20896;-85
2021/05/09 11:04:12;;;;;;;3.57;2.10;;;32.30;16.50;;;;;;5013980;28;20435;-85
2021/05/09 11:06:44;;;;;;;6.27;2.43;;;32.20;14.10;;;;;;5015735;28;20493;-85
2021/05/09 11:09:11;;;;;;;5.80;1.80;;;32.30;14.90;;;;;;5015383;28;20450;-85
2021/05/09 11:12:11;;;;;;;7.80;1.90;;;32.50;14.70;;;;;;5005030;28;20501;-85
2021/05/09 11:14:39;;;;;;;2.77;1.80;;;32.50;14.10;;;;;;5017881;28;20435;-85
2021/05/09 11:17:18;;;;;;;3.20;1.77;;;32.40;14.50;;;;;;5017938;28;20458;-85
2021/05/09 11:19:50;;;;;;;2.03;1.77;;;32.40;15.30;;;;;;5021516;28;20514;-85
2021/05/09 11:22:24;;;;;;;2.00;1.70;;;32.00;15.20;;;;;;5021496;28;20467;-86
2021/05/09 11:25:01;;;;;;;1.60;1.53;;;32.30;15.00;;;;;;5021251;28;20453;-86
2021/05/09 11:27:32;;;;;;;2.47;2.07;;;32.10;15.50;;;;;;4999920;28;20920;-86
2021/05/09 11:30:01;;;;;;;1.80;1.70;;;32.00;15.20;;;;;;4999630;28;20430;-86
2021/05/09 11:32:31;;;;;;;2.50;1.93;;;32.20;15.10;;;;;;4999791;28;20473;-85
2021/05/09 11:35:00;;;;;;;2.17;2.00;;;32.20;15.80;;;;;;4999092;28;20446;-85
2021/05/09 11:37:34;;;;;;;3.47;2.03;;;32.40;15.80;;;;;;4998814;28;20447;-86
2021/05/09 11:40:04;;;;;;;1.60;1.60;;;32.50;15.60;;;;;;4999072;28;21015;-85
2021/05/09 11:42:30;;;;;;;4.23;1.90;;;32.60;15.50;;;;;;4999401;28;21007;-85
2021/05/09 11:44:57;;;;;;;3.23;1.77;;;32.50;14.50;;;;;;4999472;28;20555;-86
2021/05/09 11:47:26;;;;;;;7.23;1.70;;;32.40;15.10;;;;;;4999264;28;20463;-86
2021/05/09 11:49:57;;;;;;;5.73;2.50;;;32.30;15.30;;;;;;5010819;28;20446;-85
2021/05/09 11:52:25;;;;;;;2.63;1.63;;;32.20;14.60;;;;;;4998159;28;20423;-86
2021/05/09 11:54:53;;;;;;;4.70;1.80;;;32.30;15.00;;;;;;4998652;28;20904;-86
2021/05/09 11:57:21;;;;;;;2.97;1.80;;;32.50;16.10;;;;;;4999606;28;20459;-86
2021/05/09 11:59:48;;;;;;;3.00;1.77;;;32.30;15.20;;;;;;4998696;28;20443;-85
2021/05/09 12:02:23;;;;;;;2.03;1.70;;;32.20;15.60;;;;;;4998305;28;20470;-85
2021/05/09 12:04:51;;;;;;;3.60;1.80;;;32.30;15.30;;;;;;4998182;28;20974;-85
2021/05/09 12:07:21;;;;;;;15.00;2.23;;;32.50;15.60;;;;;;4997942;28;20463;-85
2021/05/09 12:09:53;;;;;;;3.40;1.70;;;32.30;15.60;;;;;;4998515;28;20505;-86
2021/05/09 12:12:21;;;;;;;2.30;1.73;;;32.10;15.80;;;;;;4998120;28;20447;-86
2021/05/09 12:14:50;;;;;;;2.07;1.67;;;32.50;15.00;;;;;;4998169;28;20533;-86
2021/05/09 12:17:20;;;;;;;3.40;1.70;;;32.80;14.30;;;;;;4998455;28;20487;-87
2021/05/09 12:19:47;;;;;;;2.40;1.90;;;33.20;14.30;;;;;;4998255;28;20530;-87
2021/05/09 12:22:13;;;;;;;7.57;2.00;;;33.20;15.40;;;;;;4997442;28;20482;-86
2021/05/09 12:24:52;;;;;;;8.20;1.90;;;33.00;14.50;;;;;;4998287;28;20550;-86
2021/05/09 12:27:19;;;;;;;2.07;1.60;;;32.90;14.40;;;;;;4998119;28;20466;-86
2021/05/09 12:29:48;;;;;;;4.40;1.90;;;32.70;14.50;;;;;;4997391;28;20479;-86
2021/05/09 12:32:33;;;;;;;2.03;1.50;;;33.00;14.40;;;;;;4997735;28;20451;-86
2021/05/09 12:35:09;;;;;;;3.07;1.70;;;32.00;14.80;;;;;;5014489;28;20458;-86
2021/05/09 12:37:36;;;;;;;2.53;1.83;;;32.10;15.20;;;;;;4997751;28;20486;-86
2021/05/09 12:40:17;;;;;;;1.80;1.63;;;32.30;15.60;;;;;;4999378;28;20509;-86
2021/05/09 12:42:55;;;;;;;3.07;1.97;;;32.40;15.90;;;;;;5020533;28;20473;-85
2021/05/09 12:45:33;;;;;;;3.40;1.80;;;32.90;15.70;;;;;;5009294;28;20427;-85
2021/05/09 12:48:11;;;;;;;2.70;1.63;;;33.00;14.60;;;;;;4997849;28;20964;-85
2021/05/09 12:51:03;;;;;;;2.63;2.20;;;32.70;15.10;;;;;;4997312;28;20526;-85
2021/05/09 12:53:44;;;;;;;1.90;1.70;;;32.70;14.60;;;;;;4997697;28;20431;-86